createdAt,value
2022-11-23T00:00:27.764Z,27.05
2022-11-23T00:01:30.929Z,27.17
2022-11-23T00:02:11.826Z,27.76
2022-11-23T00:02:51.943Z,28.15
2022-11-23T00:03:31.745Z,27.88
2022-11-23T00:04:22.778Z,27.01
2022-11-23T00:05:16.793Z,27.74
2022-11-23T00:06:10.788Z,27.44
2022-11-23T00:07:04.836Z,26.76
2022-11-23T00:07:58.775Z,26.11
2022-11-23T00:08:53.854Z,26.54
2022-11-23T00:09:40.791Z,26.89
2022-11-23T00:10:14.798Z,26.35
2022-11-23T00:11:05.782Z,26.79
2022-11-23T00:11:41.818Z,26.41
2022-11-23T00:12:28.783Z,25.88
2022-11-23T00:13:02.983Z,25.77
2022-11-23T00:13:50.767Z,26.46
2022-11-23T00:14:24.798Z,25.67
2022-11-23T00:15:05.762Z,26.50
2022-11-23T00:15:47.905Z,26.21
2022-11-23T00:16:31.727Z,25.88
2022-11-23T00:17:11.806Z,26.75
2022-11-23T00:17:54.770Z,26.34
2022-11-23T00:18:34.806Z,25.42
2022-11-23T00:19:15.740Z,26.06
2022-11-23T00:19:55.880Z,25.31
2022-11-23T00:20:36.761Z,25.50
2022-11-23T00:21:22.853Z,25.96
2022-11-23T00:22:02.761Z,26.15
2022-11-23T00:22:44.088Z,25.24
2022-11-23T00:23:24.766Z,25.70
2022-11-23T00:24:04.845Z,25.95
2022-11-23T00:24:44.795Z,26.69
2022-11-23T00:25:25.851Z,26.58
2022-11-23T00:26:05.764Z,25.89
2022-11-23T00:26:45.776Z,27.02
2022-11-23T00:27:25.729Z,27.10
2022-11-23T00:28:05.855Z,27.10
2022-11-23T00:28:46.724Z,26.50
2022-11-23T00:29:27.344Z,25.99
2022-11-23T00:30:08.718Z,26.05
2022-11-23T00:30:49.146Z,26.31
2022-11-23T00:31:29.794Z,26.51
2022-11-23T00:32:10.799Z,27.05
2022-11-23T00:32:50.731Z,26.99
2022-11-23T00:33:30.862Z,27.41
2022-11-23T00:34:11.740Z,29.14
2022-11-23T00:34:53.899Z,30.11
2022-11-23T00:35:34.881Z,34.13
2022-11-23T00:36:21.862Z,37.38
2022-11-23T00:37:01.745Z,37.74
2022-11-23T00:37:41.985Z,42.63
2022-11-23T00:38:21.756Z,46.58
2022-11-23T00:39:03.025Z,45.89
2022-11-23T00:39:43.734Z,43.67
2022-11-23T00:40:24.115Z,40.28
2022-11-23T00:41:10.723Z,40.25
2022-11-23T00:41:50.843Z,38.78
2022-11-23T00:42:35.179Z,38.16
2022-11-23T00:43:17.814Z,37.05
2022-11-23T00:43:57.732Z,36.44
2022-11-23T00:44:37.912Z,34.81
2022-11-23T00:45:18.728Z,33.75
2022-11-23T00:46:14.823Z,31.64
2022-11-23T00:46:54.744Z,30.88
2022-11-23T00:47:41.759Z,29.51
2022-11-23T00:48:36.714Z,28.69
2022-11-23T00:49:32.027Z,28.64
2022-11-23T00:50:25.740Z,27.92
2022-11-23T00:51:23.742Z,27.56
2022-11-23T00:52:17.717Z,27.58
2022-11-23T00:53:04.783Z,27.98
2022-11-23T00:53:38.784Z,27.10
2022-11-23T00:54:25.715Z,27.30
2022-11-23T00:54:59.790Z,28.26
2022-11-23T00:55:46.708Z,27.80
2022-11-23T00:56:20.811Z,27.80
2022-11-23T00:57:07.716Z,27.83
2022-11-23T00:57:41.787Z,27.35
2022-11-23T00:58:28.747Z,27.99
2022-11-23T00:59:04.828Z,27.49
2022-11-23T00:59:51.711Z,26.94
2022-11-23T01:00:25.785Z,27.30
2022-11-23T01:01:21.736Z,27.48
2022-11-23T01:01:55.833Z,27.00
2022-11-23T01:02:42.692Z,27.52
2022-11-23T01:03:16.730Z,26.99
2022-11-23T01:04:01.732Z,26.76
2022-11-23T01:04:41.743Z,26.08
2022-11-23T01:05:21.699Z,26.75
2022-11-23T01:06:01.790Z,26.50
2022-11-23T01:06:46.696Z,26.34
2022-11-23T01:07:26.843Z,26.84
2022-11-23T01:08:06.684Z,26.30
2022-11-23T01:08:47.824Z,26.42
2022-11-23T01:09:31.975Z,26.80
2022-11-23T01:10:13.869Z,27.09
2022-11-23T01:10:54.720Z,26.90
2022-11-23T01:11:37.818Z,26.98
2022-11-23T01:12:18.696Z,27.01
2022-11-23T01:12:58.791Z,27.29
2022-11-23T01:13:39.687Z,27.91
2022-11-23T01:14:19.764Z,27.50
2022-11-23T01:15:00.729Z,26.80
2022-11-23T01:15:40.717Z,27.40
2022-11-23T01:16:32.701Z,27.66
2022-11-23T01:17:13.130Z,28.74
2022-11-23T01:17:53.689Z,29.02
2022-11-23T01:18:33.727Z,28.67
2022-11-23T01:19:18.690Z,28.61
2022-11-23T01:19:58.776Z,29.23
2022-11-23T01:20:38.709Z,29.09
2022-11-23T01:21:18.717Z,28.26
2022-11-23T01:21:59.671Z,28.17
2022-11-23T01:22:39.723Z,28.39
2022-11-23T01:23:19.682Z,28.01
2022-11-23T01:23:59.736Z,28.17
2022-11-23T01:24:39.684Z,28.00
2022-11-23T01:25:19.764Z,28.67
2022-11-23T01:25:59.715Z,27.94
2022-11-23T01:26:39.700Z,28.40
2022-11-23T01:27:20.658Z,28.58
2022-11-23T01:28:00.709Z,27.70
2022-11-23T01:28:41.668Z,27.65
2022-11-23T01:29:21.765Z,27.46
2022-11-23T01:30:01.717Z,26.76
2022-11-23T01:30:42.818Z,27.49
2022-11-23T01:31:29.702Z,28.25
2022-11-23T01:32:09.832Z,27.51
2022-11-23T01:32:50.664Z,26.29
2022-11-23T01:33:30.823Z,26.30
2022-11-23T01:34:10.680Z,27.08
2022-11-23T01:34:50.679Z,26.85
2022-11-23T01:35:30.653Z,27.06
2022-11-23T01:36:26.751Z,27.59
2022-11-23T01:37:07.707Z,26.75
2022-11-23T01:37:47.720Z,27.14
2022-11-23T01:38:28.726Z,26.58
2022-11-23T01:39:10.774Z,26.35
2022-11-23T01:39:50.657Z,26.33
2022-11-23T01:40:30.845Z,26.25
2022-11-23T01:41:13.671Z,26.86
2022-11-23T01:41:53.757Z,27.38
2022-11-23T01:43:03.722Z,26.64
2022-11-23T01:43:43.722Z,27.08
2022-11-23T01:44:44.720Z,27.64
2022-11-23T01:45:47.707Z,27.44
2022-11-23T01:46:27.648Z,27.79
2022-11-23T01:47:13.756Z,27.86
2022-11-23T01:47:54.640Z,27.92
2022-11-23T01:48:45.678Z,27.98
2022-11-23T01:49:19.710Z,28.04
2022-11-23T01:50:06.656Z,28.35
2022-11-23T01:50:40.721Z,28.29
2022-11-23T01:51:37.654Z,28.30
2022-11-23T01:52:28.772Z,29.06
2022-11-23T01:53:15.639Z,29.17
2022-11-23T01:53:56.679Z,28.77
2022-11-23T01:55:08.331Z,28.58
2022-11-23T01:56:03.650Z,28.71
2022-11-23T01:57:03.644Z,29.17
2022-11-23T01:57:58.644Z,29.23
2022-11-23T01:58:54.645Z,28.71
2022-11-23T01:59:35.672Z,28.51
2022-11-23T02:00:16.708Z,28.59
2022-11-23T02:00:57.684Z,28.08
2022-11-23T02:01:37.935Z,28.05
2022-11-23T02:02:18.662Z,27.70
2022-11-23T02:03:04.758Z,27.24
2022-11-23T02:03:45.655Z,26.59
2022-11-23T02:04:37.658Z,26.38
2022-11-23T02:05:12.675Z,26.52
2022-11-23T02:06:06.628Z,26.85
2022-11-23T02:06:40.667Z,26.75
2022-11-23T02:07:28.667Z,27.35
2022-11-23T02:08:02.695Z,27.14
2022-11-23T02:08:49.666Z,26.96
2022-11-23T02:09:23.675Z,27.13
2022-11-23T02:10:04.681Z,28.08
2022-11-23T02:10:44.753Z,28.29
2022-11-23T02:11:24.624Z,27.86
2022-11-23T02:12:05.839Z,27.91
2022-11-23T02:12:45.814Z,28.66
2022-11-23T02:13:25.699Z,28.54
2022-11-23T02:14:06.624Z,28.31
2022-11-23T02:14:48.868Z,28.94
2022-11-23T02:15:29.693Z,28.90
2022-11-23T02:16:09.677Z,28.64
2022-11-23T02:16:50.664Z,27.80
2022-11-23T02:17:30.668Z,28.60
2022-11-23T02:18:22.648Z,29.52
2022-11-23T02:19:02.889Z,30.02
2022-11-23T02:20:15.642Z,30.94
2022-11-23T02:20:56.636Z,30.95
2022-11-23T02:21:30.717Z,30.94
2022-11-23T02:22:43.644Z,31.71
2022-11-23T02:23:56.780Z,30.75
2022-11-23T02:24:53.628Z,30.39
2022-11-23T02:25:51.725Z,29.94
2022-11-23T02:26:40.627Z,29.33
2022-11-23T02:27:21.636Z,29.20
2022-11-23T02:28:01.689Z,29.05
2022-11-23T02:28:57.025Z,29.20
2022-11-23T02:29:37.616Z,28.76
2022-11-23T02:30:18.743Z,28.40
2022-11-23T02:31:01.608Z,28.31
2022-11-23T02:31:48.657Z,27.50
2022-11-23T02:32:43.670Z,27.55
2022-11-23T02:33:37.596Z,27.52
2022-11-23T02:34:32.652Z,28.33
2022-11-23T02:35:26.607Z,28.16
2022-11-23T02:36:58.647Z,28.13
2022-11-23T02:37:53.624Z,28.51
2022-11-23T02:38:47.610Z,28.69
2022-11-23T02:39:52.665Z,29.58
2022-11-23T02:40:49.661Z,30.41
2022-11-23T02:41:57.617Z,30.10
2022-11-23T02:42:38.617Z,30.35
2022-11-23T02:43:18.807Z,30.21
2022-11-23T02:44:03.613Z,30.55
2022-11-23T02:45:30.081Z,29.44
2022-11-23T02:46:10.607Z,29.85
2022-11-23T02:46:50.662Z,30.84
2022-11-23T02:47:31.614Z,31.11
2022-11-23T02:48:11.672Z,31.21
2022-11-23T02:48:51.601Z,31.52
2022-11-23T02:49:31.964Z,30.14
2022-11-23T02:50:12.607Z,30.26
2022-11-23T02:50:52.695Z,30.77
2022-11-23T02:51:32.572Z,30.05
2022-11-23T02:52:13.658Z,30.39
2022-11-23T02:52:53.601Z,30.31
2022-11-23T02:53:33.868Z,30.44
2022-11-23T02:54:14.621Z,30.00
2022-11-23T02:54:54.651Z,30.26
2022-11-23T02:55:35.592Z,29.79
2022-11-23T02:56:16.676Z,29.25
2022-11-23T02:56:56.600Z,29.00
2022-11-23T02:57:36.636Z,28.89
2022-11-23T02:58:17.629Z,28.88
2022-11-23T02:58:57.599Z,28.01
2022-11-23T02:59:38.559Z,27.89
2022-11-23T03:00:19.606Z,28.56
2022-11-23T03:00:59.634Z,28.06
2022-11-23T03:01:40.709Z,27.94
2022-11-23T03:02:20.617Z,27.83
2022-11-23T03:03:00.665Z,27.86
2022-11-23T03:03:40.617Z,28.00
2022-11-23T03:04:27.330Z,28.05
2022-11-23T03:05:08.720Z,27.84
2022-11-23T03:05:48.603Z,27.40
2022-11-23T03:06:28.557Z,28.21
2022-11-23T03:07:08.693Z,28.29
2022-11-23T03:07:48.645Z,27.35
2022-11-23T03:08:28.610Z,27.24
2022-11-23T03:09:08.607Z,28.16
2022-11-23T03:09:48.757Z,28.26
2022-11-23T03:10:29.598Z,28.00
2022-11-23T03:11:10.778Z,27.61
2022-11-23T03:11:51.637Z,27.52
2022-11-23T03:12:32.672Z,28.05
2022-11-23T03:13:12.578Z,28.10
2022-11-23T03:13:52.640Z,27.66
2022-11-23T03:14:33.614Z,27.58
2022-11-23T03:15:14.651Z,28.26
2022-11-23T03:15:54.576Z,28.36
2022-11-23T03:16:34.687Z,27.56
2022-11-23T03:17:14.539Z,27.75
2022-11-23T03:17:54.657Z,27.85
2022-11-23T03:18:35.569Z,27.39
2022-11-23T03:19:15.631Z,27.83
2022-11-23T03:19:56.566Z,27.71
2022-11-23T03:20:36.705Z,28.06
2022-11-23T03:21:17.581Z,27.66
2022-11-23T03:21:58.622Z,27.65
2022-11-23T03:22:39.557Z,27.75
2022-11-23T03:23:19.632Z,27.67
2022-11-23T03:24:01.579Z,27.31
2022-11-23T03:24:41.607Z,26.94
2022-11-23T03:25:22.575Z,27.02
2022-11-23T03:26:11.308Z,27.16
2022-11-23T03:26:52.558Z,26.95
2022-11-23T03:27:33.661Z,26.45
2022-11-23T03:28:14.566Z,26.42
2022-11-23T03:28:54.679Z,26.35
2022-11-23T03:29:34.739Z,26.76
2022-11-23T03:30:16.592Z,26.41
2022-11-23T03:30:57.564Z,26.85
2022-11-23T03:31:37.643Z,26.90
2022-11-23T03:32:18.535Z,26.89
2022-11-23T03:32:58.610Z,26.79
2022-11-23T03:33:39.640Z,27.04
2022-11-23T03:34:19.829Z,26.71
2022-11-23T03:34:59.537Z,26.16
2022-11-23T03:35:39.652Z,26.51
2022-11-23T03:36:19.578Z,26.59
2022-11-23T03:36:59.613Z,27.38
2022-11-23T03:37:40.544Z,27.25
2022-11-23T03:38:20.575Z,26.73
2022-11-23T03:39:00.526Z,26.94
2022-11-23T03:39:45.785Z,27.06
2022-11-23T03:40:27.527Z,27.10
2022-11-23T03:41:07.577Z,27.29
2022-11-23T03:41:47.686Z,27.86
2022-11-23T03:42:28.615Z,27.64
2022-11-23T03:43:09.519Z,27.46
2022-11-23T03:43:49.584Z,27.61
2022-11-23T03:44:30.531Z,27.89
2022-11-23T03:45:11.651Z,28.27
2022-11-23T03:45:52.525Z,27.41
2022-11-23T03:46:32.721Z,28.48
2022-11-23T03:47:19.547Z,28.55
2022-11-23T03:47:53.574Z,28.17
2022-11-23T03:48:40.526Z,29.24
2022-11-23T03:49:14.604Z,29.51
2022-11-23T03:50:01.510Z,28.16
2022-11-23T03:50:35.577Z,29.04
2022-11-23T03:51:22.513Z,29.54
2022-11-23T03:51:56.754Z,29.55
2022-11-23T03:52:43.564Z,29.16
2022-11-23T03:53:17.577Z,29.14
2022-11-23T03:54:04.560Z,29.09
2022-11-23T03:54:38.712Z,28.61
2022-11-23T03:55:26.555Z,28.61
2022-11-23T03:56:00.585Z,27.79
2022-11-23T03:56:47.528Z,27.67
2022-11-23T03:57:21.674Z,27.75
2022-11-23T03:58:09.543Z,28.01
2022-11-23T03:58:43.558Z,27.84
2022-11-23T03:59:30.777Z,27.54
2022-11-23T04:00:04.604Z,27.27
2022-11-23T04:00:51.659Z,27.69
2022-11-23T04:01:26.183Z,27.95
2022-11-23T04:02:14.524Z,28.10
2022-11-23T04:02:49.648Z,28.67
2022-11-23T04:03:29.571Z,27.92
2022-11-23T04:04:09.642Z,28.14
2022-11-23T04:04:49.510Z,27.65
2022-11-23T04:05:30.558Z,27.77
2022-11-23T04:06:11.521Z,27.64
2022-11-23T04:06:51.760Z,27.38
2022-11-23T04:07:31.588Z,27.98
2022-11-23T04:08:25.512Z,27.91
2022-11-23T04:09:05.525Z,27.42
2022-11-23T04:09:45.538Z,27.70
2022-11-23T04:10:26.518Z,27.36
2022-11-23T04:11:06.548Z,27.76
2022-11-23T04:11:46.482Z,28.51
2022-11-23T04:12:26.613Z,27.41
2022-11-23T04:13:06.521Z,27.05
2022-11-23T04:13:46.627Z,27.35
2022-11-23T04:14:26.522Z,28.31
2022-11-23T04:15:06.541Z,28.25
2022-11-23T04:15:47.579Z,28.19
2022-11-23T04:16:27.603Z,29.19
2022-11-23T04:17:08.523Z,29.21
2022-11-23T04:17:48.541Z,29.49
2022-11-23T04:18:29.471Z,28.85
2022-11-23T04:19:09.776Z,28.79
2022-11-23T04:19:49.506Z,28.21
2022-11-23T04:20:29.541Z,27.86
2022-11-23T04:21:09.483Z,28.09
2022-11-23T04:22:03.491Z,28.16
2022-11-23T04:22:57.478Z,28.33
2022-11-23T04:23:51.491Z,27.84
2022-11-23T04:24:45.478Z,28.02
2022-11-23T04:25:26.520Z,28.58
2022-11-23T04:26:06.607Z,28.38
2022-11-23T04:26:46.514Z,28.01
2022-11-23T04:27:26.519Z,28.52
2022-11-23T04:28:06.516Z,28.92
2022-11-23T04:28:46.585Z,28.55
2022-11-23T04:29:26.474Z,28.14
2022-11-23T04:30:06.617Z,28.86
2022-11-23T04:30:47.479Z,29.48
2022-11-23T04:31:27.526Z,29.46
2022-11-23T04:32:07.509Z,28.85
2022-11-23T04:32:47.586Z,28.67
2022-11-23T04:33:27.481Z,29.39
2022-11-23T04:34:07.723Z,29.34
2022-11-23T04:34:48.483Z,29.16
2022-11-23T04:35:28.523Z,28.73
2022-11-23T04:36:08.484Z,29.67
2022-11-23T04:36:48.516Z,29.15
2022-11-23T04:37:28.460Z,28.52
2022-11-23T04:38:08.536Z,29.21
2022-11-23T04:38:48.504Z,28.95
2022-11-23T04:39:28.555Z,28.51
2022-11-23T04:40:09.477Z,29.27
2022-11-23T04:40:50.808Z,29.16
2022-11-23T04:41:31.682Z,29.04
2022-11-23T04:42:12.577Z,29.42
2022-11-23T04:42:53.227Z,29.02
2022-11-23T04:43:33.503Z,28.58
2022-11-23T04:44:14.456Z,28.64
2022-11-23T04:44:55.005Z,28.80
2022-11-23T04:45:34.468Z,29.10
2022-11-23T04:46:15.536Z,29.46
2022-11-23T04:46:56.495Z,29.31
2022-11-23T04:47:36.578Z,29.56
2022-11-23T04:48:16.450Z,29.33
2022-11-23T04:48:56.539Z,28.87
2022-11-23T04:49:37.440Z,28.75
2022-11-23T04:50:17.516Z,29.52
2022-11-23T04:50:57.457Z,29.60
2022-11-23T04:51:37.573Z,29.86
2022-11-23T04:52:18.507Z,29.76
2022-11-23T04:52:58.497Z,29.76
2022-11-23T04:53:39.484Z,29.94
2022-11-23T04:54:19.498Z,29.71
2022-11-23T04:54:59.499Z,29.90
2022-11-23T04:55:39.503Z,30.34
2022-11-23T04:56:19.444Z,29.96
2022-11-23T04:56:59.707Z,29.45
2022-11-23T04:57:39.451Z,29.73
2022-11-23T04:58:19.516Z,29.14
2022-11-23T04:58:59.449Z,28.99
2022-11-23T04:59:39.616Z,29.98
2022-11-23T05:00:20.660Z,30.54
2022-11-23T05:01:01.622Z,29.96
2022-11-23T05:01:42.454Z,28.85
2022-11-23T05:02:22.662Z,29.24
2022-11-23T05:03:07.480Z,29.44
2022-11-23T05:03:47.595Z,29.23
2022-11-23T05:04:27.469Z,28.29
2022-11-23T05:05:07.533Z,29.56
2022-11-23T05:05:48.445Z,30.16
2022-11-23T05:06:28.556Z,28.96
2022-11-23T05:07:09.503Z,29.08
2022-11-23T05:07:49.541Z,28.79
2022-11-23T05:08:29.511Z,28.77
2022-11-23T05:09:09.472Z,28.25
2022-11-23T05:09:50.467Z,28.44
2022-11-23T05:10:31.528Z,28.36
2022-11-23T05:11:12.460Z,28.21
2022-11-23T05:11:52.611Z,27.71
2022-11-23T05:12:33.438Z,27.73
2022-11-23T05:13:13.504Z,28.48
2022-11-23T05:13:53.458Z,27.65
2022-11-23T05:14:33.474Z,27.66
2022-11-23T05:15:14.464Z,28.09
2022-11-23T05:15:54.467Z,27.89
2022-11-23T05:16:34.414Z,28.36
2022-11-23T05:17:14.526Z,28.40
2022-11-23T05:17:58.976Z,29.09
2022-11-23T05:18:39.471Z,28.81
2022-11-23T05:19:19.452Z,28.34
2022-11-23T05:19:59.618Z,27.99
2022-11-23T05:20:41.431Z,28.56
2022-11-23T05:21:21.726Z,28.59
2022-11-23T05:22:02.444Z,28.88
2022-11-23T05:22:42.464Z,29.38
2022-11-23T05:23:22.460Z,28.74
2022-11-23T05:24:02.493Z,27.79
2022-11-23T05:24:42.482Z,28.08
2022-11-23T05:25:22.454Z,28.75
2022-11-23T05:26:02.458Z,29.21
2022-11-23T05:26:42.459Z,28.86
2022-11-23T05:27:22.429Z,29.27
2022-11-23T05:28:16.648Z,29.30
2022-11-23T05:29:02.412Z,29.38
2022-11-23T05:29:50.432Z,28.48
2022-11-23T05:30:44.428Z,28.66
2022-11-23T05:31:38.443Z,29.23
2022-11-23T05:32:33.416Z,29.17
2022-11-23T05:33:28.451Z,29.49
2022-11-23T05:34:22.411Z,29.66
2022-11-23T05:35:10.441Z,29.19
2022-11-23T05:35:44.473Z,29.01
2022-11-23T05:36:31.414Z,28.70
2022-11-23T05:37:05.507Z,27.90
2022-11-23T05:37:52.427Z,28.60
2022-11-23T05:38:26.444Z,28.89
2022-11-23T05:39:14.417Z,28.70
2022-11-23T05:39:48.468Z,29.46
2022-11-23T05:40:35.448Z,28.80
2022-11-23T05:41:09.538Z,28.01
2022-11-23T05:41:57.433Z,27.99
2022-11-23T05:42:31.631Z,28.27
2022-11-23T05:43:18.484Z,28.66
2022-11-23T05:43:52.587Z,27.94
2022-11-23T05:44:40.412Z,28.23
2022-11-23T05:45:14.547Z,29.05
2022-11-23T05:45:54.448Z,29.11
2022-11-23T05:46:34.542Z,28.56
2022-11-23T05:47:14.386Z,30.42
2022-11-23T05:48:05.452Z,30.60
2022-11-23T05:48:46.399Z,30.10
2022-11-23T05:49:26.425Z,30.00
2022-11-23T05:50:06.408Z,30.89
2022-11-23T05:50:46.553Z,30.04
2022-11-23T05:51:26.444Z,29.91
2022-11-23T05:52:06.472Z,30.27
2022-11-23T05:52:46.447Z,30.19
2022-11-23T05:53:26.427Z,30.92
2022-11-23T05:54:08.415Z,30.60
2022-11-23T05:54:48.448Z,30.86
2022-11-23T05:55:28.397Z,31.06
2022-11-23T05:56:09.494Z,32.15
2022-11-23T05:56:50.437Z,33.08
2022-11-23T05:57:30.438Z,32.80
2022-11-23T05:58:11.383Z,31.94
2022-11-23T05:58:51.480Z,31.14
2022-11-23T05:59:31.749Z,32.19
2022-11-23T06:00:14.481Z,31.94
2022-11-23T06:00:54.383Z,31.46
2022-11-23T06:01:34.557Z,31.42
2022-11-23T06:02:15.397Z,31.75
2022-11-23T06:02:55.480Z,31.30
2022-11-23T06:03:35.496Z,31.51
2022-11-23T06:04:15.591Z,31.06
2022-11-23T06:04:55.404Z,31.08
2022-11-23T06:05:36.548Z,32.11
2022-11-23T06:06:17.386Z,31.64
2022-11-23T06:07:01.154Z,32.54
2022-11-23T06:07:42.449Z,31.98
2022-11-23T06:08:22.426Z,31.76
2022-11-23T06:09:02.357Z,31.64
2022-11-23T06:09:42.663Z,32.11
2022-11-23T06:10:22.387Z,33.09
2022-11-23T06:11:02.466Z,32.14
2022-11-23T06:11:43.411Z,31.58
2022-11-23T06:12:23.416Z,31.75
2022-11-23T06:13:10.423Z,32.39
2022-11-23T06:13:54.457Z,32.11
2022-11-23T06:14:34.355Z,31.84
2022-11-23T06:15:15.416Z,33.19
2022-11-23T06:15:56.394Z,33.21
2022-11-23T06:16:36.466Z,32.65
2022-11-23T06:17:16.384Z,31.76
2022-11-23T06:17:56.405Z,31.55
2022-11-23T06:18:36.392Z,32.69
2022-11-23T06:19:16.643Z,32.20
2022-11-23T06:19:57.368Z,32.53
2022-11-23T06:20:37.409Z,33.09
2022-11-23T06:21:17.391Z,33.97
2022-11-23T06:21:57.444Z,34.14
2022-11-23T06:22:38.424Z,33.14
2022-11-23T06:23:18.527Z,32.85
2022-11-23T06:23:59.398Z,32.88
2022-11-23T06:24:40.425Z,32.47
2022-11-23T06:25:21.378Z,32.55
2022-11-23T06:26:01.563Z,32.35
2022-11-23T06:26:42.383Z,32.90
2022-11-23T06:27:22.471Z,32.09
2022-11-23T06:28:06.365Z,31.19
2022-11-23T06:28:46.426Z,31.15
2022-11-23T06:29:27.371Z,31.13
2022-11-23T06:30:07.502Z,30.95
2022-11-23T06:30:48.388Z,30.41
2022-11-23T06:31:28.485Z,30.95
2022-11-23T06:32:09.366Z,30.39
2022-11-23T06:32:49.466Z,30.17
2022-11-23T06:33:29.356Z,30.34
2022-11-23T06:34:09.416Z,30.64
2022-11-23T06:34:50.385Z,30.45
2022-11-23T06:35:31.540Z,30.51
2022-11-23T06:36:12.372Z,29.74
2022-11-23T06:36:52.437Z,30.81
2022-11-23T06:37:32.359Z,30.34
2022-11-23T06:38:12.380Z,30.10
2022-11-23T06:38:52.360Z,30.51
2022-11-23T06:39:32.639Z,29.73
2022-11-23T06:40:13.383Z,29.56
2022-11-23T06:40:53.367Z,29.92
2022-11-23T06:41:33.340Z,29.63
2022-11-23T06:43:14.357Z,28.19
2022-11-23T06:43:54.393Z,28.20
2022-11-23T06:44:34.376Z,27.73
2022-11-23T06:45:22.359Z,27.45
2022-11-23T06:46:20.353Z,27.20
2022-11-23T06:47:17.677Z,27.29
2022-11-23T06:48:13.352Z,27.92
2022-11-23T06:49:07.405Z,28.20
2022-11-23T06:50:01.393Z,30.05
2022-11-23T06:50:41.356Z,31.39
2022-11-23T06:51:22.386Z,31.54
2022-11-23T06:52:02.377Z,31.11
2022-11-23T06:52:42.403Z,31.64
2022-11-23T06:53:23.344Z,31.74
2022-11-23T06:54:03.380Z,31.61
2022-11-23T06:54:43.324Z,32.49
2022-11-23T06:55:23.476Z,32.63
2022-11-23T06:56:07.376Z,32.79
2022-11-23T06:56:47.384Z,32.80
2022-11-23T06:57:27.357Z,32.34
2022-11-23T06:58:07.500Z,33.36
2022-11-23T06:58:49.310Z,33.31
2022-11-23T06:59:29.612Z,32.54
2022-11-23T07:00:11.371Z,31.66
2022-11-23T07:00:51.751Z,31.49
2022-11-23T07:01:31.453Z,30.79
2022-11-23T07:02:11.449Z,30.44
2022-11-23T07:02:59.353Z,30.90
2022-11-23T07:03:40.663Z,31.01
2022-11-23T07:04:20.345Z,30.83
2022-11-23T07:05:00.372Z,31.76
2022-11-23T07:05:40.332Z,31.73
2022-11-23T07:06:20.367Z,31.94
2022-11-23T07:07:00.341Z,31.89
2022-11-23T07:07:40.435Z,33.10
2022-11-23T07:08:21.348Z,33.46
2022-11-23T07:09:02.975Z,33.22
2022-11-23T07:09:44.336Z,34.09
2022-11-23T07:10:25.824Z,34.91
2022-11-23T07:11:13.321Z,34.00
2022-11-23T07:11:53.372Z,33.70
2022-11-23T07:12:34.360Z,33.15
2022-11-23T07:13:16.363Z,32.91
2022-11-23T07:13:56.311Z,32.89
2022-11-23T07:14:36.387Z,33.80
2022-11-23T07:15:17.319Z,33.95
2022-11-23T07:15:57.453Z,33.53
2022-11-23T07:16:37.339Z,33.96
2022-11-23T07:17:17.752Z,34.75
2022-11-23T07:17:57.372Z,36.84
2022-11-23T07:18:37.377Z,37.49
2022-11-23T07:19:18.321Z,37.10
2022-11-23T07:19:58.341Z,36.42
2022-11-23T07:20:38.299Z,35.30
2022-11-23T07:21:18.384Z,34.56
2022-11-23T07:21:59.377Z,34.26
2022-11-23T07:22:39.513Z,33.69
2022-11-23T07:23:19.343Z,33.20
2022-11-23T07:23:59.369Z,33.30
2022-11-23T07:24:43.952Z,32.20
2022-11-23T07:25:26.431Z,32.44
2022-11-23T07:26:09.309Z,33.24
2022-11-23T07:26:49.406Z,33.56
2022-11-23T07:27:30.329Z,33.31
2022-11-23T07:28:14.337Z,34.42
2022-11-23T07:28:54.336Z,34.63
2022-11-23T07:29:34.482Z,33.92
2022-11-23T07:30:16.344Z,33.56
2022-11-23T07:30:58.350Z,33.30
2022-11-23T07:31:39.293Z,33.30
2022-11-23T07:32:19.337Z,33.14
2022-11-23T07:33:00.287Z,32.66
2022-11-23T07:33:40.324Z,33.14
2022-11-23T07:34:20.342Z,32.88
2022-11-23T07:35:00.413Z,32.26
2022-11-23T07:35:42.303Z,33.46
2022-11-23T07:36:22.344Z,32.92
2022-11-23T07:37:03.311Z,32.94
2022-11-23T07:37:43.353Z,33.44
2022-11-23T07:38:23.303Z,32.61
2022-11-23T07:39:03.417Z,32.42
2022-11-23T07:39:56.991Z,31.88
2022-11-23T07:40:38.400Z,31.77
2022-11-23T07:41:18.330Z,32.72
2022-11-23T07:42:30.560Z,34.03
2022-11-23T07:42:58.289Z,33.78
2022-11-23T07:43:39.344Z,33.45
2022-11-23T07:44:19.304Z,33.11
2022-11-23T07:44:59.319Z,33.16
2022-11-23T07:45:34.401Z,35.65
2022-11-23T07:46:21.309Z,39.41
2022-11-23T07:46:55.361Z,40.11
2022-11-23T07:47:42.336Z,38.88
2022-11-23T07:48:17.403Z,38.04
2022-11-23T07:49:07.290Z,38.46
2022-11-23T07:49:41.357Z,38.19
2022-11-23T07:50:22.303Z,37.11
2022-11-23T07:51:02.358Z,37.34
2022-11-23T07:51:42.299Z,38.15
2022-11-23T07:52:22.542Z,38.13
2022-11-23T07:53:03.277Z,37.89
2022-11-23T07:53:43.329Z,37.40
2022-11-23T07:54:24.279Z,36.85
2022-11-23T07:55:04.352Z,37.20
2022-11-23T07:55:44.299Z,36.80
2022-11-23T07:56:24.346Z,37.47
2022-11-23T07:57:04.273Z,38.13
2022-11-23T07:57:44.311Z,37.42
2022-11-23T07:58:25.275Z,36.22
2022-11-23T07:59:05.385Z,35.06
2022-11-23T07:59:46.254Z,35.38
2022-11-23T08:00:30.361Z,35.72
2022-11-23T08:01:11.293Z,35.51
2022-11-23T08:01:57.032Z,35.50
2022-11-23T08:02:52.803Z,34.64
2022-11-23T08:03:40.380Z,34.19
2022-11-23T08:04:20.255Z,34.08
2022-11-23T08:05:00.320Z,34.45
2022-11-23T08:05:42.262Z,33.76
2022-11-23T08:06:30.310Z,34.11
2022-11-23T08:07:24.338Z,34.61
2022-11-23T08:08:19.296Z,35.33
2022-11-23T08:09:13.273Z,35.36
2022-11-23T08:10:07.274Z,35.51
2022-11-23T08:11:01.248Z,35.90
2022-11-23T08:11:49.276Z,36.28
2022-11-23T08:12:23.429Z,37.24
2022-11-23T08:13:12.295Z,37.01
2022-11-23T08:13:46.351Z,37.78
2022-11-23T08:14:33.500Z,38.65
2022-11-23T08:15:07.371Z,38.19
2022-11-23T08:15:55.685Z,38.35
2022-11-23T08:16:31.019Z,37.87
2022-11-23T08:17:12.287Z,37.28
2022-11-23T08:17:52.573Z,37.04
2022-11-23T08:18:33.252Z,36.50
2022-11-23T08:19:13.288Z,35.94
2022-11-23T08:19:53.280Z,36.19
2022-11-23T08:20:35.301Z,36.40
2022-11-23T08:21:15.271Z,37.41
2022-11-23T08:21:55.292Z,37.05
2022-11-23T08:22:35.316Z,37.40
2022-11-23T08:23:15.355Z,37.09
2022-11-23T08:23:55.253Z,36.38
2022-11-23T08:24:35.565Z,36.20
2022-11-23T08:25:16.244Z,36.59
2022-11-23T08:25:56.724Z,37.14
2022-11-23T08:26:37.270Z,37.09
2022-11-23T08:27:17.547Z,37.59
2022-11-23T08:28:11.270Z,36.91
2022-11-23T08:28:51.420Z,36.49
2022-11-23T08:29:31.265Z,36.88
2022-11-23T08:30:12.323Z,36.71
2022-11-23T08:30:53.258Z,36.01
2022-11-23T08:31:34.293Z,36.36
2022-11-23T08:32:15.249Z,35.58
2022-11-23T08:32:55.383Z,35.69
2022-11-23T08:33:35.275Z,36.92
2022-11-23T08:34:15.391Z,37.38
2022-11-23T08:34:55.240Z,37.08
2022-11-23T08:35:36.417Z,36.54
2022-11-23T08:36:17.268Z,35.72
2022-11-23T08:36:57.279Z,36.13
2022-11-23T08:37:37.225Z,36.17
2022-11-23T08:38:19.350Z,36.11
2022-11-23T08:39:01.267Z,36.35
2022-11-23T08:39:41.321Z,36.90
2022-11-23T08:40:25.397Z,38.08
2022-11-23T08:41:20.239Z,37.81
2022-11-23T08:42:14.260Z,38.16
2022-11-23T08:43:09.266Z,37.67
2022-11-23T08:44:04.251Z,36.61
2022-11-23T08:44:58.244Z,35.35
2022-11-23T08:45:52.244Z,34.90
2022-11-23T08:46:46.252Z,34.40
2022-11-23T08:47:40.243Z,34.58
2022-11-23T08:48:34.242Z,34.99
2022-11-23T08:49:21.253Z,35.85
2022-11-23T08:49:55.304Z,35.67
2022-11-23T08:50:43.219Z,36.58
2022-11-23T08:51:22.413Z,35.10
2022-11-23T08:52:09.271Z,34.55
2022-11-23T08:52:43.294Z,34.84
2022-11-23T08:53:30.250Z,34.95
2022-11-23T08:54:04.305Z,33.74
2022-11-23T08:54:44.245Z,32.78
2022-11-23T08:55:24.254Z,33.85
2022-11-23T08:56:08.217Z,32.55
2022-11-23T08:56:48.324Z,33.00
2022-11-23T08:57:29.216Z,33.08
2022-11-23T08:58:13.315Z,33.30
2022-11-23T08:58:54.250Z,34.51
2022-11-23T08:59:34.339Z,34.30
2022-11-23T09:00:16.246Z,33.34
2022-11-23T09:00:56.250Z,33.99
2022-11-23T09:01:36.292Z,33.83
2022-11-23T09:02:20.271Z,33.85
2022-11-23T09:03:01.218Z,34.38
2022-11-23T09:03:41.423Z,33.91
2022-11-23T09:04:21.210Z,34.01
2022-11-23T09:05:01.260Z,32.97
2022-11-23T09:05:45.236Z,33.75
2022-11-23T09:06:29.182Z,33.74
2022-11-23T09:07:10.250Z,33.74
2022-11-23T09:07:50.254Z,33.17
2022-11-23T09:08:30.195Z,33.03